sensor_id;sensor_type;location;lat;lon;timestamp;pressure;altitude;pressure_sealevel;temperature;humidity
42001;BME280;27689;48.390;10.856;2024-03-06T00:00:48;96042.19;;;5.92;100.00
42001;BME280;27689;48.390;10.856;2024-03-06T00:03:32;96044.69;;;5.93;100.00
42001;BME280;27689;48.390;10.856;2024-03-06T00:06:16;96035.91;;;5.83;100.00
42001;BME280;27689;48.390;10.856;2024-03-06T00:09:00;96044.53;;;5.84;100.00
42001;BME280;27689;48.390;10.856;2024-03-06T00:11:46;96045.94;;;5.88;100.00
42001;BME280;27689;48.390;10.856;2024-03-06T00:14:30;96051.16;;;5.88;100.00
42001;BME280;27689;48.390;10.856;2024-03-06T00:17:14;96049.59;;;5.85;100.00
42001;BME280;27689;48.390;10.856;2024-03-06T00:19:59;96060.00;;;5.85;100.00
42001;BME280;27689;48.390;10.856;2024-03-06T00:22:43;96056.81;;;5.82;100.00
42001;BME280;27689;48.390;10.856;2024-03-06T00:25:27;96052.09;;;5.87;100.00
42001;BME280;27689;48.390;10.856;2024-03-06T00:28:11;96061.22;;;5.92;100.00
42001;BME280;27689;48.390;10.856;2024-03-06T00:30:55;96052.22;;;5.85;100.00
42001;BME280;27689;48.390;10.856;2024-03-06T00:33:40;96059.06;;;5.86;100.00
42001;BME280;27689;48.390;10.856;2024-03-06T00:36:24;96063.31;;;5.87;100.00
42001;BME280;27689;48.390;10.856;2024-03-06T00:39:07;96060.00;;;5.85;100.00
42001;BME280;27689;48.390;10.856;2024-03-06T00:41:51;96054.81;;;5.85;100.00
42001;BME280;27689;48.390;10.856;2024-03-06T00:44:35;96050.78;;;5.81;100.00
42001;BME280;27689;48.390;10.856;2024-03-06T00:47:19;96064.72;;;5.80;100.00
42001;BME280;27689;48.390;10.856;2024-03-06T00:50:05;96058.25;;;5.86;100.00
42001;BME280;27689;48.390;10.856;2024-03-06T00:52:51;96060.00;;;5.85;100.00
42001;BME280;27689;48.390;10.856;2024-03-06T00:55:36;96062.59;;;5.85;100.00
42001;BME280;27689;48.390;10.856;2024-03-06T00:58:20;96057.19;;;5.77;100.00
42001;BME280;27689;48.390;10.856;2024-03-06T01:01:04;96058.59;;;5.81;100.00
42001;BME280;27689;48.390;10.856;2024-03-06T01:03:48;96049.84;;;5.71;100.00
42001;BME280;27689;48.390;10.856;2024-03-06T01:06:32;96046.19;;;5.74;100.00
42001;BME280;27689;48.390;10.856;2024-03-06T01:09:16;96048.19;;;5.70;100.00
42001;BME280;27689;48.390;10.856;2024-03-06T01:12:00;96048.31;;;5.80;100.00
42001;BME280;27689;48.390;10.856;2024-03-06T01:14:44;96053.28;;;5.72;100.00
42001;BME280;27689;48.390;10.856;2024-03-06T01:17:27;96049.25;;;5.67;100.00
42001;BME280;27689;48.390;10.856;2024-03-06T01:20:12;96055.16;;;5.70;100.00
42001;BME280;27689;48.390;10.856;2024-03-06T01:22:56;96058.13;;;5.76;100.00
42001;BME280;27689;48.390;10.856;2024-03-06T01:25:40;96056.25;;;5.78;100.00
42001;BME280;27689;48.390;10.856;2024-03-06T01:28:23;96048.78;;;5.74;100.00
42001;BME280;27689;48.390;10.856;2024-03-06T01:31:07;96049.59;;;5.85;100.00
42001;BME280;27689;48.390;10.856;2024-03-06T01:33:52;96052.31;;;5.84;100.00
42001;BME280;27689;48.390;10.856;2024-03-06T01:36:36;96050.22;;;5.78;100.00
42001;BME280;27689;48.390;10.856;2024-03-06T01:39:21;96045.38;;;5.73;100.00
42001;BME280;27689;48.390;10.856;2024-03-06T01:42:05;96050.44;;;5.75;100.00
42001;BME280;27689;48.390;10.856;2024-03-06T01:44:49;96055.16;;;5.70;100.00
42001;BME280;27689;48.390;10.856;2024-03-06T01:47:32;96048.09;;;5.72;100.00
42001;BME280;27689;48.390;10.856;2024-03-06T01:50:18;96054.34;;;5.69;100.00
42001;BME280;27689;48.390;10.856;2024-03-06T01:53:02;96050.47;;;5.63;100.00
42001;BME280;27689;48.390;10.856;2024-03-06T01:55:47;96061.41;;;5.67;100.00
42001;BME280;27689;48.390;10.856;2024-03-06T01:58:32;96058.25;;;5.63;100.00
42001;BME280;27689;48.390;10.856;2024-03-06T02:01:17;96052.56;;;5.70;100.00
42001;BME280;27689;48.390;10.856;2024-03-06T02:04:02;96052.91;;;5.65;100.00
42001;BME280;27689;48.390;10.856;2024-03-06T02:06:46;96046.19;;;5.74;100.00
42001;BME280;27689;48.390;10.856;2024-03-06T02:09:31;96053.41;;;5.70;100.00
42001;BME280;27689;48.390;10.856;2024-03-06T02:12:15;96050.56;;;5.73;100.00
42001;BME280;27689;48.390;10.856;2024-03-06T02:14:59;96043.00;;;5.70;100.00
42001;BME280;27689;48.390;10.856;2024-03-06T02:17:44;96053.28;;;5.83;100.00
42001;BME280;27689;48.390;10.856;2024-03-06T02:20:29;96046.31;;;5.83;100.00
42001;BME280;27689;48.390;10.856;2024-03-06T02:23:13;96043.94;;;5.80;100.00
42001;BME280;27689;48.390;10.856;2024-03-06T02:25:58;96035.56;;;5.77;100.00
42001;BME280;27689;48.390;10.856;2024-03-06T02:28:49;96039.34;;;5.73;100.00
42001;BME280;27689;48.390;10.856;2024-03-06T02:31:33;96034.50;;;5.68;100.00
42001;BME280;27689;48.390;10.856;2024-03-06T02:34:18;96028.59;;;5.66;100.00
42001;BME280;27689;48.390;10.856;2024-03-06T02:37:02;96024.47;;;5.63;100.00
42001;BME280;27689;48.390;10.856;2024-03-06T02:39:46;96030.00;;;5.59;100.00
42001;BME280;27689;48.390;10.856;2024-03-06T02:42:30;96024.00;;;5.58;100.00
42001;BME280;27689;48.390;10.856;2024-03-06T02:45:14;96022.56;;;5.54;100.00
42001;BME280;27689;48.390;10.856;2024-03-06T02:47:58;96028.72;;;5.53;100.00
42001;BME280;27689;48.390;10.856;2024-03-06T02:50:42;96025.75;;;5.58;100.00
42001;BME280;27689;48.390;10.856;2024-03-06T02:53:26;96016.44;;;5.55;100.00
42001;BME280;27689;48.390;10.856;2024-03-06T02:56:18;96021.16;;;5.50;100.00
42001;BME280;27689;48.390;10.856;2024-03-06T02:59:02;96010.63;;;5.52;100.00
42001;BME280;27689;48.390;10.856;2024-03-06T03:01:47;96012.88;;;5.56;100.00
42001;BME280;27689;48.390;10.856;2024-03-06T03:04:31;96013.50;;;5.49;100.00
42001;BME280;27689;48.390;10.856;2024-03-06T03:07:15;96008.75;;;5.43;100.00
42001;BME280;27689;48.390;10.856;2024-03-06T03:09:59;96016.66;;;5.41;100.00
42001;BME280;27689;48.390;10.856;2024-03-06T03:12:43;96018.22;;;5.44;100.00
42001;BME280;27689;48.390;10.856;2024-03-06T03:15:27;96018.22;;;5.32;100.00
42001;BME280;27689;48.390;10.856;2024-03-06T03:18:11;96023.84;;;5.38;100.00
42001;BME280;27689;48.390;10.856;2024-03-06T03:20:55;96024.81;;;5.37;100.00
42001;BME280;27689;48.390;10.856;2024-03-06T03:23:39;96020.53;;;5.36;100.00
42001;BME280;27689;48.390;10.856;2024-03-06T03:26:23;96024.69;;;5.38;100.00
42001;BME280;27689;48.390;10.856;2024-03-06T03:29:07;96022.81;;;5.40;100.00
42001;BME280;27689;48.390;10.856;2024-03-06T03:31:51;96029.53;;;5.43;100.00
42001;BME280;27689;48.390;10.856;2024-03-06T03:34:35;96022.69;;;5.53;100.00
42001;BME280;27689;48.390;10.856;2024-03-06T03:37:19;96020.91;;;5.64;100.00
42001;BME280;27689;48.390;10.856;2024-03-06T03:40:03;96022.44;;;5.67;100.00
42001;BME280;27689;48.390;10.856;2024-03-06T03:42:48;96030.25;;;5.67;100.00
42001;BME280;27689;48.390;10.856;2024-03-06T03:45:32;96035.94;;;5.61;100.00
42001;BME280;27689;48.390;10.856;2024-03-06T03:48:17;96033.44;;;5.59;100.00
42001;BME280;27689;48.390;10.856;2024-03-06T03:51:02;96033.66;;;5.56;100.00
42001;BME280;27689;48.390;10.856;2024-03-06T03:53:48;96026.13;;;5.42;100.00
42001;BME280;27689;48.390;10.856;2024-03-06T03:56:34;96039.09;;;5.53;100.00
42001;BME280;27689;48.390;10.856;2024-03-06T03:59:18;96032.75;;;5.46;100.00
42001;BME280;27689;48.390;10.856;2024-03-06T04:02:02;96032.97;;;5.43;100.00
42001;BME280;27689;48.390;10.856;2024-03-06T04:04:47;96041.00;;;5.62;100.00
42001;BME280;27689;48.390;10.856;2024-03-06T04:07:31;96032.72;;;5.57;100.00
42001;BME280;27689;48.390;10.856;2024-03-06T04:10:15;96038.63;;;5.59;100.00
42001;BME280;27689;48.390;10.856;2024-03-06T04:12:59;96041.34;;;5.58;100.00
42001;BME280;27689;48.390;10.856;2024-03-06T04:15:44;96040.53;;;5.57;100.00
42001;BME280;27689;48.390;10.856;2024-03-06T04:18:29;96036.16;;;5.58;100.00
42001;BME280;27689;48.390;10.856;2024-03-06T04:21:16;96040.19;;;5.62;100.00
42001;BME280;27689;48.390;10.856;2024-03-06T04:24:00;96035.78;;;5.51;100.00
42001;BME280;27689;48.390;10.856;2024-03-06T04:26:44;96039.00;;;5.44;100.00
42001;BME280;27689;48.390;10.856;2024-03-06T04:29:28;96038.28;;;5.42;100.00
42001;BME280;27689;48.390;10.856;2024-03-06T04:32:12;96043.25;;;5.45;100.00
42001;BME280;27689;48.390;10.856;2024-03-06T04:34:59;96045.25;;;5.52;100.00
42001;BME280;27689;48.390;10.856;2024-03-06T04:37:43;96044.66;;;5.49;100.00
42001;BME280;27689;48.390;10.856;2024-03-06T04:40:27;96036.88;;;5.49;100.00
42001;BME280;27689;48.390;10.856;2024-03-06T04:43:12;96043.00;;;5.59;100.00
42001;BME280;27689;48.390;10.856;2024-03-06T04:45:56;96038.03;;;5.56;100.00
42001;BME280;27689;48.390;10.856;2024-03-06T04:48:40;96048.09;;;5.60;100.00
42001;BME280;27689;48.390;10.856;2024-03-06T04:51:24;96052.91;;;5.54;100.00
42001;BME280;27689;48.390;10.856;2024-03-06T04:54:08;96053.75;;;5.54;100.00
42001;BME280;27689;48.390;10.856;2024-03-06T04:56:52;96054.22;;;5.48;100.00
42001;BME280;27689;48.390;10.856;2024-03-06T04:59:36;96063.66;;;5.49;100.00
42001;BME280;27689;48.390;10.856;2024-03-06T05:02:20;96063.44;;;5.52;100.00
42001;BME280;27689;48.390;10.856;2024-03-06T05:05:04;96070.75;;;5.58;100.00
42001;BME280;27689;48.390;10.856;2024-03-06T05:07:48;96068.16;;;5.58;100.00
42001;BME280;27689;48.390;10.856;2024-03-06T05:10:32;96065.19;;;5.52;100.00
42001;BME280;27689;48.390;10.856;2024-03-06T05:13:17;96078.44;;;5.60;100.00
42001;BME280;27689;48.390;10.856;2024-03-06T05:16:01;96076.53;;;5.51;100.00
42001;BME280;27689;48.390;10.856;2024-03-06T05:18:44;96084.44;;;5.49;100.00
42001;BME280;27689;48.390;10.856;2024-03-06T05:21:28;96086.34;;;5.47;100.00
42001;BME280;27689;48.390;10.856;2024-03-06T05:24:12;96081.03;;;5.60;100.00
42001;BME280;27689;48.390;10.856;2024-03-06T05:26:56;96078.78;;;5.55;100.00
42001;BME280;27689;48.390;10.856;2024-03-06T05:29:40;96083.75;;;5.58;100.00
42001;BME280;27689;48.390;10.856;2024-03-06T05:32:24;96082.81;;;5.48;100.00
42001;BME280;27689;48.390;10.856;2024-03-06T05:35:08;96087.91;;;5.61;100.00
42001;BME280;27689;48.390;10.856;2024-03-06T05:37:55;96087.19;;;5.59;100.00
42001;BME280;27689;48.390;10.856;2024-03-06T05:40:40;96089.56;;;5.62;100.00
42001;BME280;27689;48.390;10.856;2024-03-06T05:43:27;96088.69;;;5.50;100.00
42001;BME280;27689;48.390;10.856;2024-03-06T05:46:11;96089.41;;;5.52;100.00
42001;BME280;27689;48.390;10.856;2024-03-06T05:48:55;96095.53;;;5.51;100.00
42001;BME280;27689;48.390;10.856;2024-03-06T05:51:39;96106.19;;;5.59;100.00
42001;BME280;27689;48.390;10.856;2024-03-06T05:54:24;96094.97;;;5.59;100.00
42001;BME280;27689;48.390;10.856;2024-03-06T05:57:08;96100.63;;;5.53;100.00
42001;BME280;27689;48.390;10.856;2024-03-06T05:59:52;96106.06;;;5.50;100.00
42001;BME280;27689;48.390;10.856;2024-03-06T06:02:36;96114.13;;;5.58;100.00
42001;BME280;27689;48.390;10.856;2024-03-06T06:05:20;96106.88;;;5.50;100.00
42001;BME280;27689;48.390;10.856;2024-03-06T06:08:06;96112.34;;;5.58;100.00
42001;BME280;27689;48.390;10.856;2024-03-06T06:10:50;96118.72;;;5.54;100.00
42001;BME280;27689;48.390;10.856;2024-03-06T06:13:35;96122.03;;;5.56;100.00
42001;BME280;27689;48.390;10.856;2024-03-06T06:16:19;96127.56;;;5.52;100.00
42001;BME280;27689;48.390;10.856;2024-03-06T06:19:03;96117.66;;;5.57;100.00
42001;BME280;27689;48.390;10.856;2024-03-06T06:21:48;96127.44;;;5.53;100.00
42001;BME280;27689;48.390;10.856;2024-03-06T06:24:31;96131.81;;;5.53;100.00
42001;BME280;27689;48.390;10.856;2024-03-06T06:27:15;96138.66;;;5.65;100.00
42001;BME280;27689;48.390;10.856;2024-03-06T06:29:59;96135.50;;;5.61;100.00
42001;BME280;27689;48.390;10.856;2024-03-06T06:32:44;96140.22;;;5.67;100.00
42001;BME280;27689;48.390;10.856;2024-03-06T06:35:28;96138.34;;;5.70;100.00
42001;BME280;27689;48.390;10.856;2024-03-06T06:38:12;96143.19;;;5.63;100.00
42001;BME280;27689;48.390;10.856;2024-03-06T06:40:56;96147.66;;;5.61;100.00
42001;BME280;27689;48.390;10.856;2024-03-06T06:43:40;96145.06;;;5.61;100.00
42001;BME280;27689;48.390;10.856;2024-03-06T06:46:25;96147.91;;;5.69;100.00
42001;BME280;27689;48.390;10.856;2024-03-06T06:49:08;96147.41;;;5.64;100.00
42001;BME280;27689;48.390;10.856;2024-03-06T06:51:52;96144.81;;;5.64;100.00
42001;BME280;27689;48.390;10.856;2024-03-06T06:54:36;96148.38;;;5.63;100.00
42001;BME280;27689;48.390;10.856;2024-03-06T06:57:20;96146.03;;;5.71;100.00
42001;BME280;27689;48.390;10.856;2024-03-06T07:00:05;96154.16;;;5.66;100.00
42001;BME280;27689;48.390;10.856;2024-03-06T07:03:00;96152.88;;;5.72;100.00
42001;BME280;27689;48.390;10.856;2024-03-06T07:05:44;96159.50;;;5.76;100.00
42001;BME280;27689;48.390;10.856;2024-03-06T07:08:28;96163.50;;;5.69;100.00
42001;BME280;27689;48.390;10.856;2024-03-06T07:11:12;96167.53;;;5.73;100.00
42001;BME280;27689;48.390;10.856;2024-03-06T07:13:56;96167.53;;;5.73;100.00
42001;BME280;27689;48.390;10.856;2024-03-06T07:16:44;96163.28;;;5.72;100.00
42001;BME280;27689;48.390;10.856;2024-03-06T07:19:28;96167.53;;;5.73;100.00
42001;BME280;27689;48.390;10.856;2024-03-06T07:22:12;96170.84;;;5.75;100.00
42001;BME280;27689;48.390;10.856;2024-03-06T07:24:56;96169.66;;;5.79;100.00
42001;BME280;27689;48.390;10.856;2024-03-06T07:27:40;96171.19;;;5.82;100.00
42001;BME280;27689;48.390;10.856;2024-03-06T07:30:24;96180.53;;;5.84;100.00
42001;BME280;27689;48.390;10.856;2024-03-06T07:33:08;96180.66;;;5.83;100.00
42001;BME280;27689;48.390;10.856;2024-03-06T07:35:52;96190.81;;;5.86;100.00
42001;BME280;27689;48.390;10.856;2024-03-06T07:38:36;96182.19;;;5.85;100.00
42001;BME280;27689;48.390;10.856;2024-03-06T07:41:20;96181.38;;;5.85;100.00
42001;BME280;27689;48.390;10.856;2024-03-06T07:44:04;96184.47;;;5.90;100.00
42001;BME280;27689;48.390;10.856;2024-03-06T07:46:48;96191.66;;;5.86;100.00
42001;BME280;27689;48.390;10.856;2024-03-06T07:49:32;96196.66;;;5.89;100.00
42001;BME280;27689;48.390;10.856;2024-03-06T07:52:16;96194.13;;;5.88;100.00
42001;BME280;27689;48.390;10.856;2024-03-06T07:55:00;96193.34;;;5.98;100.00
42001;BME280;27689;48.390;10.856;2024-03-06T07:57:44;96192.28;;;6.01;100.00
42001;BME280;27689;48.390;10.856;2024-03-06T08:00:28;96194.78;;;6.03;100.00
42001;BME280;27689;48.390;10.856;2024-03-06T08:03:12;96201.53;;;6.05;100.00
42001;BME280;27689;48.390;10.856;2024-03-06T08:05:57;96204.47;;;6.00;100.00
42001;BME280;27689;48.390;10.856;2024-03-06T08:08:42;96202.34;;;6.06;100.00
42001;BME280;27689;48.390;10.856;2024-03-06T08:11:27;96201.28;;;6.08;100.00
42001;BME280;27689;48.390;10.856;2024-03-06T08:14:11;96201.41;;;6.07;100.00
42001;BME280;27689;48.390;10.856;2024-03-06T08:16:56;96211.91;;;6.05;100.00
42001;BME280;27689;48.390;10.856;2024-03-06T08:19:40;96216.06;;;6.08;100.00
42001;BME280;27689;48.390;10.856;2024-03-06T08:22:24;96217.47;;;6.12;100.00
42001;BME280;27689;48.390;10.856;2024-03-06T08:25:10;96223.88;;;6.19;100.00
42001;BME280;27689;48.390;10.856;2024-03-06T08:27:54;96223.75;;;6.20;100.00
42001;BME280;27689;48.390;10.856;2024-03-06T08:30:38;96217.00;;;6.18;100.00
42001;BME280;27689;48.390;10.856;2024-03-06T08:33:21;96220.66;;;6.26;100.00
42001;BME280;27689;48.390;10.856;2024-03-06T08:36:06;96219.72;;;6.27;100.00
42001;BME280;27689;48.390;10.856;2024-03-06T08:38:50;96221.38;;;6.28;100.00
42001;BME280;27689;48.390;10.856;2024-03-06T08:41:35;96227.19;;;6.32;100.00
42001;BME280;27689;48.390;10.856;2024-03-06T08:44:19;96217.50;;;6.34;100.00
42001;BME280;27689;48.390;10.856;2024-03-06T08:47:04;96236.75;;;6.43;100.00
42001;BME280;27689;48.390;10.856;2024-03-06T08:49:48;96227.28;;;6.42;100.00
42001;BME280;27689;48.390;10.856;2024-03-06T08:52:32;96231.31;;;6.46;100.00
42001;BME280;27689;48.390;10.856;2024-03-06T08:55:16;96228.59;;;6.47;100.00
42001;BME280;27689;48.390;10.856;2024-03-06T08:58:00;96235.91;;;6.53;100.00
42001;BME280;27689;48.390;10.856;2024-03-06T09:00:45;96239.25;;;6.55;100.00
42001;BME280;27689;48.390;10.856;2024-03-06T09:03:28;96235.81;;;6.55;100.00
42001;BME280;27689;48.390;10.856;2024-03-06T09:06:12;96248.25;;;6.62;100.00
42001;BME280;27689;48.390;10.856;2024-03-06T09:08:56;96246.34;;;6.64;100.00
42001;BME280;27689;48.390;10.856;2024-03-06T09:11:41;96245.41;;;6.65;100.00
42001;BME280;27689;48.390;10.856;2024-03-06T09:14:26;96252.84;;;6.70;100.00
42001;BME280;27689;48.390;10.856;2024-03-06T09:17:10;96251.66;;;6.74;100.00
42001;BME280;27689;48.390;10.856;2024-03-06T09:19:56;96256.41;;;6.80;100.00
42001;BME280;27689;48.390;10.856;2024-03-06T09:22:41;96260.66;;;6.81;100.00
42001;BME280;27689;48.390;10.856;2024-03-06T09:25:25;96263.63;;;6.77;100.00
42001;BME280;27689;48.390;10.856;2024-03-06T09:28:09;96261.84;;;6.77;100.00
42001;BME280;27689;48.390;10.856;2024-03-06T09:30:53;96260.50;;;6.83;100.00
42001;BME280;27689;48.390;10.856;2024-03-06T09:33:39;96261.09;;;6.86;100.00
42001;BME280;27689;48.390;10.856;2024-03-06T09:36:23;96262.75;;;6.87;100.00
42001;BME280;27689;48.390;10.856;2024-03-06T09:39:09;96270.00;;;6.95;100.00
42001;BME280;27689;48.390;10.856;2024-03-06T09:41:53;96267.59;;;7.03;100.00
42001;BME280;27689;48.390;10.856;2024-03-06T09:44:37;96269.72;;;7.09;100.00
42001;BME280;27689;48.390;10.856;2024-03-06T09:47:22;96275.66;;;7.11;100.00
42001;BME280;27689;48.390;10.856;2024-03-06T09:50:09;96276.81;;;7.18;100.00
42001;BME280;27689;48.390;10.856;2024-03-06T09:52:55;96272.19;;;7.22;100.00
42001;BME280;27689;48.390;10.856;2024-03-06T09:55:40;96272.31;;;7.20;100.00
42001;BME280;27689;48.390;10.856;2024-03-06T09:58:25;96274.44;;;7.26;100.00
42001;BME280;27689;48.390;10.856;2024-03-06T10:01:10;96279.50;;;7.28;100.00
42001;BME280;27689;48.390;10.856;2024-03-06T10:03:55;96280.09;;;7.31;100.00
42001;BME280;27689;48.390;10.856;2024-03-06T10:06:39;96286.81;;;7.34;100.00
42001;BME280;27689;48.390;10.856;2024-03-06T10:09:27;96272.03;;;7.34;100.00
42001;BME280;27689;48.390;10.856;2024-03-06T10:12:12;96290.03;;;7.37;100.00
42001;BME280;27689;48.390;10.856;2024-03-06T10:14:56;96282.09;;;7.39;100.00
42001;BME280;27689;48.390;10.856;2024-03-06T10:17:40;96287.50;;;7.47;100.00
42001;BME280;27689;48.390;10.856;2024-03-06T10:20:25;96285.84;;;7.46;100.00
42001;BME280;27689;48.390;10.856;2024-03-06T10:23:10;96284.78;;;7.49;100.00
42001;BME280;27689;48.390;10.856;2024-03-06T10:25:54;96288.22;;;7.49;100.00
42001;BME280;27689;48.390;10.856;2024-03-06T10:28:44;96288.28;;;7.59;100.00
42001;BME280;27689;48.390;10.856;2024-03-06T10:31:28;96286.03;;;7.65;100.00
42001;BME280;27689;48.390;10.856;2024-03-06T10:34:13;96292.13;;;7.75;100.00
42001;BME280;27689;48.390;10.856;2024-03-06T10:36:58;96283.81;;;7.82;100.00
42001;BME280;27689;48.390;10.856;2024-03-06T10:39:42;96281.84;;;7.95;100.00
42001;BME280;27689;48.390;10.856;2024-03-06T10:42:28;96286.00;;;7.97;100.00
42001;BME280;27689;48.390;10.856;2024-03-06T10:45:13;96289.59;;;8.06;100.00
42001;BME280;27689;48.390;10.856;2024-03-06T10:47:59;96289.13;;;8.12;100.00
42001;BME280;27689;48.390;10.856;2024-03-06T10:50:46;96294.09;;;8.15;100.00
42001;BME280;27689;48.390;10.856;2024-03-06T10:53:31;96292.31;;;8.16;100.00
42001;BME280;27689;48.390;10.856;2024-03-06T10:56:17;96299.16;;;8.17;100.00
42001;BME280;27689;48.390;10.856;2024-03-06T10:59:03;96299.81;;;8.09;100.00
42001;BME280;27689;48.390;10.856;2024-03-06T11:01:49;96299.09;;;8.07;100.00
42001;BME280;27689;48.390;10.856;2024-03-06T11:04:33;96292.34;;;8.04;100.00
42001;BME280;27689;48.390;10.856;2024-03-06T11:07:17;96295.66;;;8.06;100.00
42001;BME280;27689;48.390;10.856;2024-03-06T11:10:01;96305.97;;;8.08;100.00
42001;BME280;27689;48.390;10.856;2024-03-06T11:12:45;96295.16;;;8.12;100.00
42001;BME280;27689;48.390;10.856;2024-03-06T11:15:30;96298.19;;;8.18;100.00
42001;BME280;27689;48.390;10.856;2024-03-06T11:24:18;96301.75;;;8.17;100.00
42001;BME280;27689;48.390;10.856;2024-03-06T11:27:04;96308.50;;;8.19;100.00
42001;BME280;27689;48.390;10.856;2024-03-06T11:30:07;96303.81;;;8.13;100.00
42001;BME280;27689;48.390;10.856;2024-03-06T11:32:58;96306.84;;;8.18;100.00
42001;BME280;27689;48.390;10.856;2024-03-06T11:35:43;96300.31;;;8.24;100.00
42001;BME280;27689;48.390;10.856;2024-03-06T11:38:53;96293.69;;;8.20;100.00
42001;BME280;27689;48.390;10.856;2024-03-06T11:44:29;96305.00;;;8.41;100.00
42001;BME280;27689;48.390;10.856;2024-03-06T11:47:13;96294.59;;;8.51;100.00
42001;BME280;27689;48.390;10.856;2024-03-06T11:49:57;96300.06;;;8.47;100.00
42001;BME280;27689;48.390;10.856;2024-03-06T11:52:42;96300.34;;;8.44;100.00
42001;BME280;27689;48.390;10.856;2024-03-06T11:55:26;96292.75;;;8.41;100.00
42001;BME280;27689;48.390;10.856;2024-03-06T11:58:10;96297.72;;;8.44;100.00
42001;BME280;27689;48.390;10.856;2024-03-06T12:00:55;96296.38;;;8.50;100.00
42001;BME280;27689;48.390;10.856;2024-03-06T12:03:39;96294.34;;;8.54;100.00
42001;BME280;27689;48.390;10.856;2024-03-06T12:06:23;96301.78;;;8.58;100.00
42001;BME280;27689;48.390;10.856;2024-03-06T12:09:07;96301.00;;;8.46;100.00
42001;BME280;27689;48.390;10.856;2024-03-06T12:11:56;96302.25;;;8.42;100.00
42001;BME280;27689;48.390;10.856;2024-03-06T12:14:41;96300.97;;;8.37;100.00
42001;BME280;27689;48.390;10.856;2024-03-06T12:17:24;96291.22;;;8.39;100.00
42001;BME280;27689;48.390;10.856;2024-03-06T12:20:10;96296.44;;;8.39;100.00
42001;BME280;27689;48.390;10.856;2024-03-06T12:22:57;96293.84;;;8.39;100.00
42001;BME280;27689;48.390;10.856;2024-03-06T12:25:41;96296.31;;;8.40;100.00
42001;BME280;27689;48.390;10.856;2024-03-06T12:28:25;96296.44;;;8.39;100.00
42001;BME280;27689;48.390;10.856;2024-03-06T12:31:11;96294.09;;;8.36;100.00
42001;BME280;27689;48.390;10.856;2024-03-06T12:33:58;96301.78;;;8.37;100.00
42001;BME280;27689;48.390;10.856;2024-03-06T12:36:42;96296.94;;;8.33;100.00
42001;BME280;27689;48.390;10.856;2024-03-06T12:39:26;96300.97;;;8.37;100.00
42001;BME280;27689;48.390;10.856;2024-03-06T12:42:11;96298.34;;;8.37;100.00
42001;BME280;27689;48.390;10.856;2024-03-06T12:44:58;96301.66;;;8.39;100.00
42001;BME280;27689;48.390;10.856;2024-03-06T12:47:43;96297.53;;;8.36;100.00
42001;BME280;27689;48.390;10.856;2024-03-06T12:50:27;96295.75;;;8.37;100.00
42001;BME280;27689;48.390;10.856;2024-03-06T12:53:11;96299.50;;;8.44;100.00
42001;BME280;27689;48.390;10.856;2024-03-06T12:55:55;96294.72;;;8.49;100.00
42001;BME280;27689;48.390;10.856;2024-03-06T12:58:39;96295.25;;;8.43;100.00
42001;BME280;27689;48.390;10.856;2024-03-06T13:01:23;96302.28;;;8.52;100.00
42001;BME280;27689;48.390;10.856;2024-03-06T13:04:06;96296.13;;;8.53;100.00
42001;BME280;27689;48.390;10.856;2024-03-06T13:06:51;96298.47;;;8.56;100.00
42001;BME280;27689;48.390;10.856;2024-03-06T13:09:35;96296.81;;;8.55;100.00
42001;BME280;27689;48.390;10.856;2024-03-06T13:12:19;96298.72;;;8.53;100.00
42001;BME280;27689;48.390;10.856;2024-03-06T13:15:03;96297.78;;;8.54;100.00
42001;BME280;27689;48.390;10.856;2024-03-06T13:17:48;96308.91;;;8.56;100.00
42001;BME280;27689;48.390;10.856;2024-03-06T13:20:33;96300.38;;;8.54;100.00
42001;BME280;27689;48.390;10.856;2024-03-06T13:23:17;96303.94;;;8.53;100.00
42001;BME280;27689;48.390;10.856;2024-03-06T13:26:01;96311.66;;;8.55;100.00
42001;BME280;27689;48.390;10.856;2024-03-06T13:28:45;96305.84;;;8.51;100.00
42001;BME280;27689;48.390;10.856;2024-03-06T13:31:29;96302.88;;;8.56;100.00
42001;BME280;27689;48.390;10.856;2024-03-06T13:34:14;96302.16;;;8.54;100.00
42001;BME280;27689;48.390;10.856;2024-03-06T13:36:59;96307.97;;;8.57;100.00
42001;BME280;27689;48.390;10.856;2024-03-06T13:39:42;96295.41;;;8.51;100.00
42001;BME280;27689;48.390;10.856;2024-03-06T13:42:27;96301.47;;;8.52;100.00
42001;BME280;27689;48.390;10.856;2024-03-06T13:45:11;96301.53;;;8.40;100.00
42001;BME280;27689;48.390;10.856;2024-03-06T13:47:56;96306.78;;;8.40;100.00
42001;BME280;27689;48.390;10.856;2024-03-06T13:50:40;96305.03;;;8.30;100.00
42001;BME280;27689;48.390;10.856;2024-03-06T13:53:23;96305.88;;;8.30;100.00
42001;BME280;27689;48.390;10.856;2024-03-06T13:56:08;96307.66;;;8.30;100.00
42001;BME280;27689;48.390;10.856;2024-03-06T13:58:51;96305.03;;;8.30;100.00
42001;BME280;27689;48.390;10.856;2024-03-06T14:01:35;96313.56;;;8.32;100.00
42001;BME280;27689;48.390;10.856;2024-03-06T14:04:25;96313.94;;;8.27;100.00
42001;BME280;27689;48.390;10.856;2024-03-06T14:07:10;96317.75;;;8.23;100.00
42001;BME280;27689;48.390;10.856;2024-03-06T14:09:54;96315.50;;;8.19;100.00
42001;BME280;27689;48.390;10.856;2024-03-06T14:12:40;96321.41;;;8.32;100.00
42001;BME280;27689;48.390;10.856;2024-03-06T14:15:24;96320.47;;;8.22;100.00
42001;BME280;27689;48.390;10.856;2024-03-06T14:18:09;96327.66;;;8.08;100.00
42001;BME280;27689;48.390;10.856;2024-03-06T14:20:53;96316.19;;;7.79;100.00
42001;BME280;27689;48.390;10.856;2024-03-06T14:23:37;96342.44;;;6.90;100.00
42001;BME280;27689;48.390;10.856;2024-03-06T14:26:21;96347.38;;;6.48;100.00
42001;BME280;27689;48.390;10.856;2024-03-06T14:29:06;96357.69;;;6.15;100.00